Time;durP1;ratioP1;P1;durP2;ratioP2;P2;SDS_P1;SDS_P2;PMS_P1;PMS_P2;Temp;Humidity;BMP_temperature;BMP_pressure;BME280_temperature;BME280_humidity;BME280_pressure;Samples;Min_cycle;Max_cycle;Signal;HPM_P1;HPM_P2
2023/06/06 00:01:31;;;;;;;0.70;0.70;;;;;;;;;;4999068;28;20443;-74
2023/06/06 00:03:57;;;;;;;0.70;0.60;;;;;;;;;;5002208;28;20443;-74
2023/06/06 00:06:27;;;;;;;0.80;0.67;;;;;;;;;;5003422;28;20455;-75
2023/06/06 00:08:55;;;;;;;0.70;0.60;;;;;;;;;;5006854;28;20450;-75
2023/06/06 00:11:22;;;;;;;0.70;0.60;;;;;;;;;;5004494;28;20445;-77
2023/06/06 00:13:52;;;;;;;0.70;0.60;;;;;;;;;;5004248;28;20478;-75
2023/06/06 00:16:18;;;;;;;0.93;0.87;;;;;;;;;;4991060;28;20559;-75
2023/06/06 00:18:45;;;;;;;0.70;0.60;;;;;;;;;;5009397;28;20520;-75
2023/06/06 00:21:12;;;;;;;0.70;0.60;;;;;;;;;;5009606;28;20447;-74
2023/06/06 00:23:39;;;;;;;0.70;0.70;;;;;;;;;;4992242;28;20480;-76
2023/06/06 00:26:07;;;;;;;0.70;0.70;;;;;;;;;;5005806;28;20964;-77
2023/06/06 00:28:36;;;;;;;1.40;1.30;;;;;;;;;;5005435;28;20527;-76
2023/06/06 00:31:03;;;;;;;0.87;0.87;;;;;;;;;;5009089;28;20461;-75
2023/06/06 00:33:30;;;;;;;0.70;0.60;;;;;;;;;;5007239;28;20467;-74
2023/06/06 00:35:57;;;;;;;0.70;0.70;;;;;;;;;;5002762;28;20537;-74
2023/06/06 00:38:24;;;;;;;0.77;0.67;;;;;;;;;;5002164;28;21293;-75
2023/06/06 00:40:51;;;;;;;0.70;0.60;;;;;;;;;;4992078;28;20448;-75
2023/06/06 00:43:19;;;;;;;0.93;0.83;;;;;;;;;;4986623;28;20462;-75
2023/06/06 00:45:46;;;;;;;0.70;0.60;;;;;;;;;;5005510;28;20460;-73
2023/06/06 00:48:13;;;;;;;0.70;0.60;;;;;;;;;;5007287;28;20466;-77
2023/06/06 00:50:42;;;;;;;0.80;0.80;;;;;;;;;;4990099;28;20503;-75
2023/06/06 00:53:09;;;;;;;0.70;0.70;;;;;;;;;;4995239;28;20470;-77
2023/06/06 00:55:37;;;;;;;0.80;0.70;;;;;;;;;;5008925;28;20454;-75
2023/06/06 00:58:04;;;;;;;0.70;0.60;;;;;;;;;;5009207;28;20506;-75
2023/06/06 01:00:32;;;;;;;0.70;0.60;;;;;;;;;;5001486;28;20479;-75
2023/06/06 01:03:00;;;;;;;0.70;0.60;;;;;;;;;;5008251;28;20459;-76
2023/06/06 01:05:27;;;;;;;0.70;0.60;;;;;;;;;;5004640;28;20451;-75
2023/06/06 01:07:53;;;;;;;0.80;0.70;;;;;;;;;;5008607;28;20481;-76
2023/06/06 01:10:21;;;;;;;0.70;0.60;;;;;;;;;;4987584;28;20454;-76
2023/06/06 01:12:55;;;;;;;0.87;0.87;;;;;;;;;;5009647;28;20969;-74
2023/06/06 01:15:26;;;;;;;0.70;0.60;;;;;;;;;;4991299;28;20480;-75
2023/06/06 01:17:55;;;;;;;0.80;0.70;;;;;;;;;;4991915;28;20489;-77
2023/06/06 01:20:23;;;;;;;0.70;0.70;;;;;;;;;;4987225;28;20989;-74
2023/06/06 01:22:52;;;;;;;0.70;0.60;;;;;;;;;;4988021;28;20474;-76
2023/06/06 01:25:21;;;;;;;0.70;0.60;;;;;;;;;;5006773;28;20453;-77
2023/06/06 01:27:53;;;;;;;0.70;0.60;;;;;;;;;;4987798;28;20453;-74
2023/06/06 01:30:21;;;;;;;0.70;0.60;;;;;;;;;;5008364;28;20446;-76
2023/06/06 01:32:54;;;;;;;0.70;0.60;;;;;;;;;;4981296;28;20474;-76
2023/06/06 01:35:24;;;;;;;0.93;0.83;;;;;;;;;;4997719;28;20445;-77
2023/06/06 01:37:56;;;;;;;1.27;0.87;;;;;;;;;;5006300;28;20474;-78
2023/06/06 01:40:26;;;;;;;0.70;0.57;;;;;;;;;;4994218;28;20465;-75
2023/06/06 01:42:53;;;;;;;0.70;0.70;;;;;;;;;;4991583;28;20446;-76
2023/06/06 01:45:23;;;;;;;1.00;1.00;;;;;;;;;;5002253;28;20473;-75
2023/06/06 01:47:50;;;;;;;0.93;0.90;;;;;;;;;;4986714;28;20486;-75
2023/06/06 01:50:18;;;;;;;0.70;0.60;;;;;;;;;;4997358;28;20441;-73
2023/06/06 01:52:44;;;;;;;0.70;0.60;;;;;;;;;;5002192;28;20465;-75
2023/06/06 01:55:12;;;;;;;0.70;0.60;;;;;;;;;;4991474;28;20753;-75
2023/06/06 01:57:39;;;;;;;0.70;0.60;;;;;;;;;;4999358;28;20464;-76
2023/06/06 02:00:08;;;;;;;1.23;1.13;;;;;;;;;;4999035;28;20911;-76
2023/06/06 02:02:40;;;;;;;0.70;0.70;;;;;;;;;;5000557;28;20420;-73
2023/06/06 02:05:07;;;;;;;0.80;0.73;;;;;;;;;;5006415;28;20449;-77
2023/06/06 02:07:34;;;;;;;0.70;0.60;;;;;;;;;;4988026;28;20461;-74
2023/06/06 02:10:07;;;;;;;0.70;0.60;;;;;;;;;;4993924;28;20442;-75
2023/06/06 02:12:37;;;;;;;0.70;0.60;;;;;;;;;;5008121;28;20457;-79
2023/06/06 02:15:05;;;;;;;0.70;0.70;;;;;;;;;;5002784;28;20454;-73
2023/06/06 02:17:32;;;;;;;1.00;1.00;;;;;;;;;;5007356;28;20445;-75
2023/06/06 02:19:59;;;;;;;0.70;0.60;;;;;;;;;;5010284;28;21086;-75
2023/06/06 02:22:26;;;;;;;2.60;2.40;;;;;;;;;;5008361;28;20525;-76
2023/06/06 02:24:52;;;;;;;11.27;1.83;;;;;;;;;;5009151;28;21023;-74
2023/06/06 02:27:21;;;;;;;0.70;0.70;;;;;;;;;;5003242;28;20453;-75
2023/06/06 02:29:49;;;;;;;1.40;1.30;;;;;;;;;;5001747;28;21086;-74
2023/06/06 02:32:16;;;;;;;0.70;0.60;;;;;;;;;;5003213;28;20845;-74
2023/06/06 02:34:43;;;;;;;0.97;0.73;;;;;;;;;;4988919;28;20453;-76
2023/06/06 02:37:09;;;;;;;0.90;0.80;;;;;;;;;;4985135;28;20474;-76
2023/06/06 02:39:37;;;;;;;1.67;1.43;;;;;;;;;;5002375;28;20477;-76
2023/06/06 02:42:06;;;;;;;2.67;2.57;;;;;;;;;;5012658;28;20531;-77
2023/06/06 02:44:33;;;;;;;0.70;0.60;;;;;;;;;;4990428;28;20468;-77
2023/06/06 02:47:02;;;;;;;0.90;0.90;;;;;;;;;;5000672;28;20444;-76
2023/06/06 02:49:28;;;;;;;0.70;0.60;;;;;;;;;;5008279;28;20468;-77
2023/06/06 02:51:55;;;;;;;0.70;0.60;;;;;;;;;;4992117;28;20531;-75
2023/06/06 02:54:22;;;;;;;0.70;0.60;;;;;;;;;;4986434;28;20457;-74
2023/06/06 02:56:49;;;;;;;1.33;1.23;;;;;;;;;;4993467;28;20536;-75
2023/06/06 02:59:16;;;;;;;0.70;0.67;;;;;;;;;;4988965;28;20484;-75
2023/06/06 03:01:47;;;;;;;0.70;0.60;;;;;;;;;;4999556;28;20475;-77
2023/06/06 03:04:16;;;;;;;0.70;0.60;;;;;;;;;;5009034;28;20441;-78
2023/06/06 03:06:43;;;;;;;0.70;0.60;;;;;;;;;;5005713;28;20459;-74
2023/06/06 03:09:12;;;;;;;1.20;1.10;;;;;;;;;;5001383;28;20450;-74
2023/06/06 03:11:40;;;;;;;0.70;0.60;;;;;;;;;;5010050;28;20440;-75
2023/06/06 03:14:08;;;;;;;0.70;0.60;;;;;;;;;;4990590;28;20453;-77
2023/06/06 03:16:39;;;;;;;0.70;0.60;;;;;;;;;;5008582;28;20464;-73
2023/06/06 03:19:10;;;;;;;0.70;0.60;;;;;;;;;;5006507;28;20525;-76
2023/06/06 03:21:38;;;;;;;0.70;0.60;;;;;;;;;;5008323;28;20445;-75
2023/06/06 03:24:06;;;;;;;0.80;0.80;;;;;;;;;;4991986;28;20843;-77
2023/06/06 03:26:34;;;;;;;0.73;0.73;;;;;;;;;;5006214;28;20979;-74
2023/06/06 03:29:02;;;;;;;0.70;0.60;;;;;;;;;;5002023;28;20451;-77
2023/06/06 03:31:33;;;;;;;0.70;0.60;;;;;;;;;;5001619;28;20466;-76
2023/06/06 03:34:00;;;;;;;0.70;0.60;;;;;;;;;;5008126;28;20460;-74
2023/06/06 03:36:32;;;;;;;1.00;1.00;;;;;;;;;;5005175;28;20439;-73
2023/06/06 03:39:01;;;;;;;0.70;0.60;;;;;;;;;;5002820;28;20587;-74
2023/06/06 03:41:28;;;;;;;0.70;0.60;;;;;;;;;;5023130;28;20458;-77
2023/06/06 03:43:54;;;;;;;0.70;0.60;;;;;;;;;;5006459;28;20500;-76
2023/06/06 03:46:21;;;;;;;0.77;0.73;;;;;;;;;;5011238;28;21009;-77
2023/06/06 03:48:48;;;;;;;0.70;0.60;;;;;;;;;;5002439;28;20444;-77
2023/06/06 03:51:15;;;;;;;1.63;1.53;;;;;;;;;;5006076;28;20484;-74
2023/06/06 03:53:42;;;;;;;1.00;0.90;;;;;;;;;;4988264;28;20456;-74
2023/06/06 03:56:12;;;;;;;0.70;0.60;;;;;;;;;;5003637;28;20462;-77
2023/06/06 03:58:38;;;;;;;0.70;0.70;;;;;;;;;;5003799;28;20460;-74
2023/06/06 04:01:05;;;;;;;0.70;0.60;;;;;;;;;;5007108;28;20571;-74
2023/06/06 04:03:36;;;;;;;0.80;0.70;;;;;;;;;;4988255;28;20525;-77
2023/06/06 04:06:07;;;;;;;0.70;0.70;;;;;;;;;;4998857;28;20460;-74
2023/06/06 04:08:37;;;;;;;0.70;0.60;;;;;;;;;;5011002;28;20482;-76
2023/06/06 04:11:06;;;;;;;0.70;0.70;;;;;;;;;;5003602;28;21033;-76
2023/06/06 04:13:34;;;;;;;0.70;0.60;;;;;;;;;;4989319;28;20447;-75
2023/06/06 04:16:01;;;;;;;0.70;0.60;;;;;;;;;;5014413;28;20459;-74
2023/06/06 04:18:28;;;;;;;0.70;0.60;;;;;;;;;;5018268;28;20960;-73
2023/06/06 04:20:56;;;;;;;1.97;1.87;;;;;;;;;;4988806;28;20660;-74
2023/06/06 04:23:23;;;;;;;1.13;1.07;;;;;;;;;;4998447;28;20458;-79
2023/06/06 04:25:49;;;;;;;0.70;0.60;;;;;;;;;;5005023;28;20448;-75
2023/06/06 04:28:19;;;;;;;0.70;0.60;;;;;;;;;;4991644;28;20441;-73
2023/06/06 04:30:51;;;;;;;0.80;0.77;;;;;;;;;;5002063;28;20454;-76
2023/06/06 04:33:23;;;;;;;1.83;1.73;;;;;;;;;;4991468;28;20453;-75
2023/06/06 04:35:51;;;;;;;1.83;1.73;;;;;;;;;;5008126;28;20545;-73
2023/06/06 04:38:22;;;;;;;0.70;0.60;;;;;;;;;;5005545;28;20577;-75
2023/06/06 04:40:50;;;;;;;0.70;0.70;;;;;;;;;;4998363;28;20478;-76
2023/06/06 04:43:37;;;;;;;0.97;0.97;;;;;;;;;;4990868;28;20494;-75
2023/06/06 04:46:06;;;;;;;0.97;0.80;;;;;;;;;;5005754;28;20525;-77
2023/06/06 04:48:32;;;;;;;0.80;0.80;;;;;;;;;;4998703;28;20457;-76
2023/06/06 04:50:59;;;;;;;0.70;0.50;;;;;;;;;;4987142;28;20446;-76
2023/06/06 04:53:26;;;;;;;0.70;0.60;;;;;;;;;;5010741;28;20567;-74
2023/06/06 04:55:56;;;;;;;0.90;0.73;;;;;;;;;;4992013;28;21075;-79
2023/06/06 04:58:23;;;;;;;0.70;0.60;;;;;;;;;;5005361;28;20453;-76
2023/06/06 05:00:50;;;;;;;0.90;0.90;;;;;;;;;;5001601;28;20473;-74
2023/06/06 05:03:19;;;;;;;1.03;0.93;;;;;;;;;;4987067;28;20981;-75
2023/06/06 05:05:48;;;;;;;0.70;0.70;;;;;;;;;;5006066;28;20431;-74
2023/06/06 05:08:16;;;;;;;0.77;0.77;;;;;;;;;;4997260;28;20453;-75
2023/06/06 05:10:42;;;;;;;1.10;1.00;;;;;;;;;;5002257;28;20426;-75
2023/06/06 05:13:09;;;;;;;0.70;0.70;;;;;;;;;;5002499;28;20465;-76
2023/06/06 05:15:36;;;;;;;0.70;0.60;;;;;;;;;;4991031;28;20453;-73
2023/06/06 05:18:03;;;;;;;0.70;0.70;;;;;;;;;;5000762;28;20894;-75
2023/06/06 05:20:31;;;;;;;0.70;0.70;;;;;;;;;;5004929;28;20481;-76
2023/06/06 05:22:59;;;;;;;1.30;1.20;;;;;;;;;;4991043;28;20472;-77
2023/06/06 05:25:26;;;;;;;2.93;1.10;;;;;;;;;;5012135;28;20437;-75
2023/06/06 05:27:55;;;;;;;1.57;1.47;;;;;;;;;;5007473;28;20444;-76
2023/06/06 05:30:21;;;;;;;0.70;0.63;;;;;;;;;;4995279;28;20482;-76
2023/06/06 05:32:50;;;;;;;0.70;0.70;;;;;;;;;;5005390;28;21339;-75
2023/06/06 05:35:17;;;;;;;1.10;1.00;;;;;;;;;;4983007;28;21004;-77
2023/06/06 05:37:45;;;;;;;0.87;0.83;;;;;;;;;;5002021;28;20464;-73
2023/06/06 05:40:13;;;;;;;2.13;1.07;;;;;;;;;;5011180;28;20460;-73
2023/06/06 05:42:40;;;;;;;1.43;1.10;;;;;;;;;;4981678;28;20465;-77
2023/06/06 05:45:08;;;;;;;2.72;2.03;;;;;;;;;;4945542;28;1272701;-74
2023/06/06 05:47:35;;;;;;;0.70;0.70;;;;;;;;;;4998506;28;20252;-76
2023/06/06 05:50:03;;;;;;;0.70;0.60;;;;;;;;;;5004091;28;20541;-73
2023/06/06 05:52:30;;;;;;;0.70;0.70;;;;;;;;;;5014657;28;20481;-75
2023/06/06 05:54:59;;;;;;;0.70;0.70;;;;;;;;;;5001091;28;20441;-75
2023/06/06 05:57:27;;;;;;;1.00;0.90;;;;;;;;;;4998960;28;20947;-75
2023/06/06 05:59:54;;;;;;;0.70;0.60;;;;;;;;;;4998608;28;20930;-77
2023/06/06 06:02:22;;;;;;;0.70;0.60;;;;;;;;;;5001664;28;20504;-77
2023/06/06 06:04:52;;;;;;;0.70;0.70;;;;;;;;;;4999518;28;20484;-74
2023/06/06 06:07:22;;;;;;;1.10;1.00;;;;;;;;;;5003803;28;20480;-76
2023/06/06 06:09:49;;;;;;;2.00;1.03;;;;;;;;;;5002858;28;20451;-76
2023/06/06 06:12:17;;;;;;;0.90;0.90;;;;;;;;;;5001981;28;20468;-76
2023/06/06 06:14:46;;;;;;;0.70;0.70;;;;;;;;;;5008564;28;20457;-73
2023/06/06 06:17:13;;;;;;;0.80;0.80;;;;;;;;;;4999701;28;20536;-75
2023/06/06 06:19:40;;;;;;;0.87;0.87;;;;;;;;;;5002467;28;20508;-75
2023/06/06 06:22:07;;;;;;;0.90;0.90;;;;;;;;;;4991005;28;20578;-75
2023/06/06 06:24:35;;;;;;;0.70;0.60;;;;;;;;;;5003933;28;20482;-76
2023/06/06 06:27:03;;;;;;;1.83;1.40;;;;;;;;;;4993870;28;20498;-75
2023/06/06 06:29:31;;;;;;;0.70;0.70;;;;;;;;;;5001210;28;20492;-76
2023/06/06 06:31:58;;;;;;;0.70;0.70;;;;;;;;;;5006146;28;20977;-77
2023/06/06 06:34:24;;;;;;;8.33;1.83;;;;;;;;;;4996969;28;20439;-76
2023/06/06 06:36:51;;;;;;;4.67;1.40;;;;;;;;;;4995940;28;20528;-74
2023/06/06 06:39:19;;;;;;;0.73;0.70;;;;;;;;;;4998140;28;20453;-72
2023/06/06 06:41:46;;;;;;;0.80;0.70;;;;;;;;;;5004720;28;20511;-75
2023/06/06 06:44:13;;;;;;;1.63;1.53;;;;;;;;;;5005370;28;20473;-77
2023/06/06 06:46:41;;;;;;;0.80;0.80;;;;;;;;;;5007182;28;20867;-75
2023/06/06 06:49:12;;;;;;;0.70;0.70;;;;;;;;;;5000713;28;20439;-74
2023/06/06 06:51:40;;;;;;;0.80;0.70;;;;;;;;;;5002536;28;20500;-74
2023/06/06 06:54:07;;;;;;;0.70;0.70;;;;;;;;;;5009019;28;20460;-73
2023/06/06 06:56:36;;;;;;;0.70;0.70;;;;;;;;;;5003012;28;20494;-77
2023/06/06 06:59:05;;;;;;;0.70;0.70;;;;;;;;;;5012936;28;20449;-75
2023/06/06 07:01:32;;;;;;;1.20;1.10;;;;;;;;;;5008101;28;20558;-76
2023/06/06 07:04:04;;;;;;;1.10;1.00;;;;;;;;;;5011467;28;20446;-76
2023/06/06 07:06:33;;;;;;;1.10;1.00;;;;;;;;;;5007628;28;20436;-75
2023/06/06 07:09:00;;;;;;;1.13;1.07;;;;;;;;;;5002644;28;20492;-78
2023/06/06 07:11:27;;;;;;;3.00;2.10;;;;;;;;;;5003505;28;20454;-72
2023/06/06 07:13:55;;;;;;;0.73;0.70;;;;;;;;;;5005333;28;21046;-75
2023/06/06 07:16:23;;;;;;;0.80;0.80;;;;;;;;;;4992545;28;20461;-76
2023/06/06 07:18:51;;;;;;;0.80;0.70;;;;;;;;;;5003256;28;21001;-75
2023/06/06 07:21:21;;;;;;;0.80;0.70;;;;;;;;;;5008609;28;20464;-79
2023/06/06 07:23:48;;;;;;;0.80;0.80;;;;;;;;;;5003212;28;20443;-76
2023/06/06 07:26:16;;;;;;;0.80;0.73;;;;;;;;;;4991911;28;20455;-77
2023/06/06 07:28:43;;;;;;;0.90;0.90;;;;;;;;;;5001504;28;20500;-77
2023/06/06 07:31:13;;;;;;;0.80;0.80;;;;;;;;;;5009137;28;20460;-74
2023/06/06 07:33:40;;;;;;;0.70;0.70;;;;;;;;;;4979889;28;20457;-76
2023/06/06 07:36:07;;;;;;;1.17;1.07;;;;;;;;;;5012580;28;20450;-75
2023/06/06 07:38:35;;;;;;;0.70;0.70;;;;;;;;;;4997437;28;20504;-75
2023/06/06 07:41:02;;;;;;;0.80;0.80;;;;;;;;;;5016055;28;20478;-75
2023/06/06 07:43:29;;;;;;;1.57;0.90;;;;;;;;;;5007941;28;20449;-77
2023/06/06 07:45:56;;;;;;;1.07;1.00;;;;;;;;;;5003799;28;20480;-75
2023/06/06 07:48:23;;;;;;;0.70;0.70;;;;;;;;;;4998887;28;20446;-74
2023/06/06 07:50:50;;;;;;;0.80;0.70;;;;;;;;;;5008915;28;20481;-75
2023/06/06 07:53:17;;;;;;;0.93;0.93;;;;;;;;;;5007682;28;20509;-76
2023/06/06 07:55:46;;;;;;;0.80;0.80;;;;;;;;;;5004965;28;20923;-77
2023/06/06 07:58:14;;;;;;;0.80;0.80;;;;;;;;;;4994199;28;20828;-78
2023/06/06 08:00:40;;;;;;;0.80;0.80;;;;;;;;;;5000233;28;21525;-76
2023/06/06 08:03:11;;;;;;;1.83;1.20;;;;;;;;;;5001777;28;20496;-78
2023/06/06 08:05:39;;;;;;;1.17;0.80;;;;;;;;;;5009384;28;20445;-78
2023/06/06 08:08:07;;;;;;;0.80;0.73;;;;;;;;;;5001183;28;20537;-77
2023/06/06 08:10:36;;;;;;;0.77;0.70;;;;;;;;;;5001601;28;20433;-76
2023/06/06 08:13:04;;;;;;;1.00;0.90;;;;;;;;;;4995072;28;21005;-76
2023/06/06 08:15:31;;;;;;;4.70;2.00;;;;;;;;;;5011440;28;20512;-76
2023/06/06 08:17:57;;;;;;;1.73;0.90;;;;;;;;;;4996343;28;20472;-76
2023/06/06 08:20:24;;;;;;;4.60;1.47;;;;;;;;;;5009160;28;20442;-76
2023/06/06 08:22:51;;;;;;;0.70;0.70;;;;;;;;;;5001986;28;20481;-77
2023/06/06 08:25:18;;;;;;;1.57;1.40;;;;;;;;;;4998513;28;20524;-75
2023/06/06 08:27:45;;;;;;;0.70;0.70;;;;;;;;;;4998220;28;20798;-76
2023/06/06 08:30:14;;;;;;;0.70;0.63;;;;;;;;;;5002974;28;20562;-75
2023/06/06 08:32:42;;;;;;;0.80;0.80;;;;;;;;;;5001942;28;20469;-74
2023/06/06 08:35:09;;;;;;;2.33;1.13;;;;;;;;;;4993483;28;20453;-75
2023/06/06 08:37:37;;;;;;;1.50;1.00;;;;;;;;;;4995491;28;20479;-76
2023/06/06 08:40:04;;;;;;;1.10;1.00;;;;;;;;;;4991039;28;20462;-77
2023/06/06 08:42:35;;;;;;;1.87;1.77;;;;;;;;;;5000950;28;20478;-77
2023/06/06 08:45:05;;;;;;;1.33;1.23;;;;;;;;;;4995769;28;21033;-75
2023/06/06 08:47:34;;;;;;;1.00;0.90;;;;;;;;;;5006967;28;20454;-76
2023/06/06 08:50:04;;;;;;;0.83;0.83;;;;;;;;;;5009481;28;20417;-77
2023/06/06 08:52:32;;;;;;;0.80;0.70;;;;;;;;;;5009412;28;20462;-76
2023/06/06 08:55:01;;;;;;;0.90;0.90;;;;;;;;;;5002516;28;20500;-74
2023/06/06 08:57:28;;;;;;;2.10;0.93;;;;;;;;;;5001897;28;20472;-75
2023/06/06 08:59:57;;;;;;;0.80;0.80;;;;;;;;;;4985135;28;20534;-77
2023/06/06 09:02:25;;;;;;;0.80;0.73;;;;;;;;;;4991627;28;20564;-76
2023/06/06 09:04:56;;;;;;;1.20;1.10;;;;;;;;;;5006445;28;20441;-76
2023/06/06 09:07:24;;;;;;;0.97;0.87;;;;;;;;;;4988841;28;20569;-78
2023/06/06 09:09:52;;;;;;;1.07;0.90;;;;;;;;;;5003926;28;20446;-79
2023/06/06 09:12:19;;;;;;;0.80;0.80;;;;;;;;;;5004211;28;20471;-76
2023/06/06 09:14:49;;;;;;;0.90;0.83;;;;;;;;;;5014268;28;20446;-75
2023/06/06 09:17:16;;;;;;;0.80;0.80;;;;;;;;;;4999633;28;20434;-76
2023/06/06 09:19:44;;;;;;;1.20;1.10;;;;;;;;;;5010579;28;20946;-76
2023/06/06 09:22:13;;;;;;;0.80;0.70;;;;;;;;;;5007669;28;20758;-77
2023/06/06 09:24:44;;;;;;;0.80;0.70;;;;;;;;;;5000053;28;20557;-80
2023/06/06 09:27:28;;;;;;;1.10;1.00;;;;;;;;;;5000275;28;20897;-77
2023/06/06 09:29:57;;;;;;;0.80;0.70;;;;;;;;;;5000458;28;20412;-79
2023/06/06 09:32:26;;;;;;;2.80;0.97;;;;;;;;;;5006550;28;20421;-81
2023/06/06 09:34:54;;;;;;;0.80;0.70;;;;;;;;;;4990854;28;20427;-76
2023/06/06 09:37:23;;;;;;;1.30;1.20;;;;;;;;;;5001714;28;20497;-76
2023/06/06 09:40:08;;;;;;;0.70;0.70;;;;;;;;;;5003025;28;20459;-77
2023/06/06 09:42:35;;;;;;;1.10;1.00;;;;;;;;;;4998937;28;20548;-79
2023/06/06 09:45:04;;;;;;;1.00;0.90;;;;;;;;;;5001541;28;20458;-77
2023/06/06 09:47:31;;;;;;;1.10;1.00;;;;;;;;;;5007214;28;20782;-79
2023/06/06 09:49:59;;;;;;;1.10;1.00;;;;;;;;;;5007927;28;20512;-79
2023/06/06 09:52:29;;;;;;;0.80;0.70;;;;;;;;;;4996872;28;20802;-77
2023/06/06 09:54:57;;;;;;;0.70;0.60;;;;;;;;;;5003235;28;20442;-79
2023/06/06 09:57:25;;;;;;;0.90;0.90;;;;;;;;;;5002650;28;20412;-80
2023/06/06 09:59:55;;;;;;;0.80;0.70;;;;;;;;;;4996711;28;20442;-76
2023/06/06 10:02:23;;;;;;;2.00;1.90;;;;;;;;;;5010129;28;20479;-77
2023/06/06 10:04:51;;;;;;;0.80;0.70;;;;;;;;;;5007804;28;20439;-80
2023/06/06 10:07:20;;;;;;;0.83;0.80;;;;;;;;;;4999296;28;20537;-79
2023/06/06 10:09:49;;;;;;;2.37;2.17;;;;;;;;;;5000926;28;20992;-77
2023/06/06 10:12:17;;;;;;;1.07;0.97;;;;;;;;;;5005535;28;20449;-81
2023/06/06 10:14:48;;;;;;;0.80;0.70;;;;;;;;;;4990962;28;20858;-80
2023/06/06 10:17:15;;;;;;;0.80;0.80;;;;;;;;;;4989786;28;20461;-77
2023/06/06 10:19:42;;;;;;;1.40;1.30;;;;;;;;;;4984266;28;20472;-79
2023/06/06 10:22:11;;;;;;;0.70;0.60;;;;;;;;;;5001982;28;20543;-78
2023/06/06 10:24:38;;;;;;;1.03;1.00;;;;;;;;;;4997464;28;20930;-81
2023/06/06 10:27:10;;;;;;;2.03;1.30;;;;;;;;;;5004428;28;20485;-80
2023/06/06 10:29:42;;;;;;;0.80;0.80;;;;;;;;;;4999405;28;20462;-80
2023/06/06 10:32:12;;;;;;;0.80;0.80;;;;;;;;;;5003661;28;20434;-78
2023/06/06 10:34:43;;;;;;;1.00;0.87;;;;;;;;;;5007647;28;20441;-79
2023/06/06 10:37:13;;;;;;;1.17;1.07;;;;;;;;;;5006521;28;20453;-81
2023/06/06 10:39:41;;;;;;;0.70;0.60;;;;;;;;;;5011860;28;20450;-81
2023/06/06 10:42:11;;;;;;;0.80;0.70;;;;;;;;;;4999620;28;20477;-81
2023/06/06 10:44:41;;;;;;;0.90;0.90;;;;;;;;;;5009999;28;20455;-79
2023/06/06 10:47:27;;;;;;;1.73;0.83;;;;;;;;;;5010950;28;20441;-81
2023/06/06 10:50:14;;;;;;;1.03;0.93;;;;;;;;;;5009715;28;20501;-81
2023/06/06 10:52:43;;;;;;;1.20;1.10;;;;;;;;;;4997901;28;20528;-80
2023/06/06 10:55:13;;;;;;;0.80;0.70;;;;;;;;;;5006356;28;20456;-80
2023/06/06 10:57:47;;;;;;;0.70;0.60;;;;;;;;;;5011264;28;20429;-80
2023/06/06 11:00:16;;;;;;;0.80;0.70;;;;;;;;;;5009754;28;20438;-80
2023/06/06 11:02:44;;;;;;;1.00;0.80;;;;;;;;;;5004127;28;20470;-80
2023/06/06 11:05:12;;;;;;;1.60;1.50;;;;;;;;;;5003749;28;20434;-79
2023/06/06 11:07:39;;;;;;;0.80;0.70;;;;;;;;;;5003459;28;20461;-81
2023/06/06 11:10:07;;;;;;;0.80;0.70;;;;;;;;;;4993407;28;20457;-79
2023/06/06 11:12:35;;;;;;;1.07;0.97;;;;;;;;;;5004828;28;20446;-84
2023/06/06 11:15:05;;;;;;;1.83;1.00;;;;;;;;;;5018638;28;20947;-81
2023/06/06 11:17:43;;;;;;;1.60;1.50;;;;;;;;;;4986314;28;20852;-82
2023/06/06 11:20:19;;;;;;;0.80;0.70;;;;;;;;;;5006222;28;20458;-81
2023/06/06 11:22:51;;;;;;;0.70;0.60;;;;;;;;;;4993256;28;20506;-80
2023/06/06 11:25:20;;;;;;;0.97;0.97;;;;;;;;;;5004760;28;20449;-81
2023/06/06 11:27:49;;;;;;;0.90;0.90;;;;;;;;;;5002798;28;20436;-82
2023/06/06 11:30:20;;;;;;;0.83;0.70;;;;;;;;;;5004063;28;20462;-80
2023/06/06 11:32:46;;;;;;;0.80;0.70;;;;;;;;;;4998113;28;20466;-79
2023/06/06 11:35:17;;;;;;;9.30;1.10;;;;;;;;;;5008372;28;20465;-79
2023/06/06 11:37:49;;;;;;;1.47;1.37;;;;;;;;;;4999237;28;20470;-82
2023/06/06 11:40:17;;;;;;;1.43;0.93;;;;;;;;;;4987933;28;20545;-78
2023/06/06 11:42:48;;;;;;;0.80;0.70;;;;;;;;;;5005072;28;20979;-81
2023/06/06 11:45:16;;;;;;;0.80;0.70;;;;;;;;;;5001780;28;20939;-80
2023/06/06 11:47:45;;;;;;;1.70;1.60;;;;;;;;;;4998622;28;20442;-79
2023/06/06 11:50:12;;;;;;;0.80;0.80;;;;;;;;;;5003953;28;20812;-78
2023/06/06 11:52:43;;;;;;;0.80;0.73;;;;;;;;;;5009567;28;20482;-78
2023/06/06 11:55:11;;;;;;;3.57;0.77;;;;;;;;;;5004161;28;20490;-80
2023/06/06 11:57:41;;;;;;;1.23;1.07;;;;;;;;;;5006487;28;20497;-81
2023/06/06 12:00:14;;;;;;;1.53;1.43;;;;;;;;;;5003079;28;20464;-82
2023/06/06 12:02:51;;;;;;;0.80;0.70;;;;;;;;;;5001036;28;20465;-80
2023/06/06 12:05:22;;;;;;;0.80;0.70;;;;;;;;;;5001548;28;20441;-83
2023/06/06 12:07:49;;;;;;;0.80;0.60;;;;;;;;;;5004281;28;20467;-80
2023/06/06 12:10:23;;;;;;;1.77;1.40;;;;;;;;;;5004563;28;20449;-81
2023/06/06 12:12:52;;;;;;;0.73;0.60;;;;;;;;;;5002597;28;21173;-80
2023/06/06 12:15:41;;;;;;;0.80;0.70;;;;;;;;;;5009485;28;20775;-78
2023/06/06 12:18:10;;;;;;;0.80;0.70;;;;;;;;;;4995913;28;20449;-81
2023/06/06 12:20:40;;;;;;;2.23;2.03;;;;;;;;;;5000251;28;20467;-80
2023/06/06 12:23:07;;;;;;;0.90;0.80;;;;;;;;;;5004400;28;21010;-79
2023/06/06 12:25:35;;;;;;;1.00;0.90;;;;;;;;;;5002162;28;20946;-77
2023/06/06 12:28:09;;;;;;;1.40;0.97;;;;;;;;;;5009778;28;20455;-77
2023/06/06 12:30:38;;;;;;;0.77;0.73;;;;;;;;;;5001070;28;20867;-77
2023/06/06 12:33:08;;;;;;;1.10;0.90;;;;;;;;;;5001861;28;21505;-78
2023/06/06 12:35:39;;;;;;;0.80;0.70;;;;;;;;;;5008992;28;20473;-79
2023/06/06 12:38:06;;;;;;;1.73;1.63;;;;;;;;;;5004921;28;20821;-77
2023/06/06 12:40:37;;;;;;;0.93;0.90;;;;;;;;;;5012831;28;20477;-81
2023/06/06 12:43:06;;;;;;;2.60;0.90;;;;;;;;;;5000576;28;20465;-80
2023/06/06 12:45:34;;;;;;;0.80;0.77;;;;;;;;;;4998746;28;20454;-81
2023/06/06 12:48:03;;;;;;;0.80;0.73;;;;;;;;;;4996917;28;20466;-80
2023/06/06 12:50:30;;;;;;;1.90;0.87;;;;;;;;;;5001592;28;20472;-76
2023/06/06 12:52:59;;;;;;;1.10;1.00;;;;;;;;;;4997406;28;20486;-79
2023/06/06 12:55:26;;;;;;;0.80;0.70;;;;;;;;;;4987909;28;20447;-79
2023/06/06 12:57:54;;;;;;;0.80;0.80;;;;;;;;;;5001489;28;20458;-78
2023/06/06 13:00:21;;;;;;;0.80;0.70;;;;;;;;;;5001629;28;20432;-79
2023/06/06 13:02:49;;;;;;;1.67;1.57;;;;;;;;;;5003015;28;20471;-79
2023/06/06 13:05:16;;;;;;;0.70;0.60;;;;;;;;;;5003635;28;20987;-81
2023/06/06 13:07:43;;;;;;;0.70;0.60;;;;;;;;;;5001763;28;20469;-78
2023/06/06 13:10:13;;;;;;;1.03;0.93;;;;;;;;;;4995243;28;21061;-78
2023/06/06 13:12:40;;;;;;;1.10;1.00;;;;;;;;;;4997549;28;20446;-78
2023/06/06 13:15:07;;;;;;;0.70;0.60;;;;;;;;;;5006006;28;20434;-79
2023/06/06 13:17:34;;;;;;;0.90;0.90;;;;;;;;;;5004042;28;20449;-80
2023/06/06 13:20:06;;;;;;;0.70;0.60;;;;;;;;;;5004475;28;20937;-78
2023/06/06 13:22:32;;;;;;;0.70;0.50;;;;;;;;;;5001527;28;20561;-78
2023/06/06 13:25:00;;;;;;;1.37;0.80;;;;;;;;;;5004537;28;20434;-80
2023/06/06 13:27:28;;;;;;;0.70;0.60;;;;;;;;;;4989404;28;21065;-79
2023/06/06 13:29:55;;;;;;;0.70;0.60;;;;;;;;;;5002556;28;20893;-79
2023/06/06 13:32:23;;;;;;;0.83;0.70;;;;;;;;;;5003631;28;20545;-79
2023/06/06 13:34:51;;;;;;;0.87;0.70;;;;;;;;;;5008440;28;21037;-77
2023/06/06 13:37:18;;;;;;;0.70;0.60;;;;;;;;;;5003215;28;20458;-78
2023/06/06 13:39:45;;;;;;;0.70;0.50;;;;;;;;;;5001612;28;20938;-80
2023/06/06 13:42:13;;;;;;;1.07;0.97;;;;;;;;;;5001164;28;20450;-80
2023/06/06 13:44:41;;;;;;;0.80;0.60;;;;;;;;;;5010191;28;20511;-78
2023/06/06 13:47:08;;;;;;;2.90;0.80;;;;;;;;;;5013992;28;20464;-79
2023/06/06 13:49:38;;;;;;;0.77;0.60;;;;;;;;;;4991114;28;20512;-77
2023/06/06 13:52:05;;;;;;;0.80;0.70;;;;;;;;;;5008443;28;20476;-78
2023/06/06 13:54:36;;;;;;;1.00;0.80;;;;;;;;;;4986353;28;20462;-78
2023/06/06 13:57:12;;;;;;;1.33;1.00;;;;;;;;;;5004929;28;20450;-79
2023/06/06 13:59:41;;;;;;;0.90;0.73;;;;;;;;;;4999373;28;20431;-77
2023/06/06 14:02:09;;;;;;;0.80;0.70;;;;;;;;;;5002263;28;20446;-78
2023/06/06 14:04:36;;;;;;;0.90;0.70;;;;;;;;;;5007215;28;20966;-79
2023/06/06 14:07:03;;;;;;;1.10;0.73;;;;;;;;;;5001659;28;20462;-78
2023/06/06 14:09:31;;;;;;;0.80;0.63;;;;;;;;;;5011394;28;20457;-79
2023/06/06 14:11:58;;;;;;;2.40;2.23;;;;;;;;;;5002427;28;20441;-77
2023/06/06 14:14:27;;;;;;;1.60;1.50;;;;;;;;;;5000589;28;20939;-78
2023/06/06 14:16:57;;;;;;;0.80;0.70;;;;;;;;;;5001832;28;20467;-77
2023/06/06 14:19:35;;;;;;;0.70;0.60;;;;;;;;;;5019321;28;20557;-78
2023/06/06 14:24:52;;;;;;;0.90;0.60;;;;;;;;;;5007387;28;20530;-75
2023/06/06 14:27:19;;;;;;;1.00;0.73;;;;;;;;;;5005099;28;20914;-79
2023/06/06 14:29:46;;;;;;;1.73;1.17;;;;;;;;;;5004149;28;20469;-78
2023/06/06 14:32:15;;;;;;;1.00;0.80;;;;;;;;;;5004147;28;20918;-79
2023/06/06 14:34:43;;;;;;;1.00;0.77;;;;;;;;;;5007062;28;20462;-80
2023/06/06 14:37:10;;;;;;;0.80;0.60;;;;;;;;;;4988956;28;20482;-79
2023/06/06 14:39:38;;;;;;;0.90;0.77;;;;;;;;;;5004018;28;20453;-78
2023/06/06 14:42:06;;;;;;;1.20;1.03;;;;;;;;;;4995756;28;21371;-76
2023/06/06 14:44:36;;;;;;;0.80;0.60;;;;;;;;;;5010253;28;20506;-78
2023/06/06 14:47:06;;;;;;;0.83;0.70;;;;;;;;;;5003692;28;20446;-79
2023/06/06 14:49:39;;;;;;;0.80;0.70;;;;;;;;;;5001787;28;21441;-79
2023/06/06 14:52:08;;;;;;;0.80;0.80;;;;;;;;;;5006724;28;20967;-79
2023/06/06 14:54:35;;;;;;;0.90;0.80;;;;;;;;;;5013208;28;20537;-76